sensor_id;sensor_type;location;lat;lon;timestamp;pressure;altitude;pressure_sealevel;temperature;humidity
77153;BME280;66124;51.146;17.072;2023-05-18T00:01:07;101041.81;;;8.99;68.75
77153;BME280;66124;51.146;17.072;2023-05-18T00:03:37;101046.16;;;8.96;68.85
77153;BME280;66124;51.146;17.072;2023-05-18T00:06:05;101047.17;;;8.92;68.84
77153;BME280;66124;51.146;17.072;2023-05-18T00:08:33;101047.50;;;8.89;68.95
77153;BME280;66124;51.146;17.072;2023-05-18T00:16:14;101049.88;;;8.85;68.93
77153;BME280;66124;51.146;17.072;2023-05-18T00:18:43;101048.94;;;8.80;68.85
77153;BME280;66124;51.146;17.072;2023-05-18T00:21:13;101049.13;;;8.76;68.83
77153;BME280;66124;51.146;17.072;2023-05-18T00:23:43;101053.98;;;8.77;68.91
77153;BME280;66124;51.146;17.072;2023-05-18T00:26:12;101055.83;;;8.76;68.88
77153;BME280;66124;51.146;17.072;2023-05-18T00:28:42;101063.00;;;8.74;68.75
77153;BME280;66124;51.146;17.072;2023-05-18T00:31:12;101069.86;;;8.72;68.91
77153;BME280;66124;51.146;17.072;2023-05-18T00:33:41;101066.34;;;8.70;68.90
77153;BME280;66124;51.146;17.072;2023-05-18T00:36:11;101067.66;;;8.68;69.18
77153;BME280;66124;51.146;17.072;2023-05-18T00:38:40;101068.79;;;8.65;69.01
77153;BME280;66124;51.146;17.072;2023-05-18T00:41:10;101071.86;;;8.62;69.29
77153;BME280;66124;51.146;17.072;2023-05-18T00:43:41;101073.73;;;8.59;69.17
77153;BME280;66124;51.146;17.072;2023-05-18T00:46:11;101075.77;;;8.56;69.28
77153;BME280;66124;51.146;17.072;2023-05-18T00:48:41;101077.09;;;8.54;69.17
77153;BME280;66124;51.146;17.072;2023-05-18T00:51:12;101077.41;;;8.50;69.21
77153;BME280;66124;51.146;17.072;2023-05-18T00:53:42;101081.98;;;8.46;69.44
77153;BME280;66124;51.146;17.072;2023-05-18T00:56:12;101088.85;;;8.44;69.53
77153;BME280;66124;51.146;17.072;2023-05-18T00:58:43;101088.62;;;8.41;69.52
77153;BME280;66124;51.146;17.072;2023-05-18T01:01:13;101092.25;;;8.38;69.59
77153;BME280;66124;51.146;17.072;2023-05-18T01:03:42;101093.99;;;8.32;69.81
77153;BME280;66124;51.146;17.072;2023-05-18T01:06:12;101096.05;;;8.29;69.89
77153;BME280;66124;51.146;17.072;2023-05-18T01:08:41;101103.53;;;8.26;69.79
77153;BME280;66124;51.146;17.072;2023-05-18T01:11:18;101107.27;;;8.23;70.01
77153;BME280;66124;51.146;17.072;2023-05-18T01:13:55;101107.35;;;8.21;69.96
77153;BME280;66124;51.146;17.072;2023-05-18T01:16:29;101104.09;;;8.18;70.12
77153;BME280;66124;51.146;17.072;2023-05-18T01:19:06;101106.65;;;8.15;70.10
77153;BME280;66124;51.146;17.072;2023-05-18T01:21:55;101111.69;;;8.14;70.32
77153;BME280;66124;51.146;17.072;2023-05-18T01:24:30;101109.96;;;8.11;70.40
77153;BME280;66124;51.146;17.072;2023-05-18T01:27:00;101113.52;;;8.09;70.32
77153;BME280;66124;51.146;17.072;2023-05-18T01:29:30;101115.90;;;8.08;70.43
77153;BME280;66124;51.146;17.072;2023-05-18T01:36:21;101118.98;;;8.07;70.36
77153;BME280;66124;51.146;17.072;2023-05-18T01:38:51;101122.61;;;8.04;70.54
77153;BME280;66124;51.146;17.072;2023-05-18T01:41:23;101123.63;;;8.02;70.56
77153;BME280;66124;51.146;17.072;2023-05-18T01:44:00;101124.04;;;8.01;70.54
77153;BME280;66124;51.146;17.072;2023-05-18T01:46:38;101125.80;;;8.01;70.54
77153;BME280;66124;51.146;17.072;2023-05-18T01:49:15;101125.02;;;8.00;70.48
77153;BME280;66124;51.146;17.072;2023-05-18T01:51:47;101128.80;;;7.99;70.68
77153;BME280;66124;51.146;17.072;2023-05-18T01:54:20;101126.92;;;7.97;70.50
77153;BME280;66124;51.146;17.072;2023-05-18T01:56:52;101131.70;;;7.94;70.50
77153;BME280;66124;51.146;17.072;2023-05-18T01:59:23;101130.74;;;7.91;70.43
77153;BME280;66124;51.146;17.072;2023-05-18T02:01:53;101128.42;;;7.90;70.35
77153;BME280;66124;51.146;17.072;2023-05-18T02:04:25;101132.45;;;7.88;70.33
77153;BME280;66124;51.146;17.072;2023-05-18T02:06:55;101135.39;;;7.87;70.36
77153;BME280;66124;51.146;17.072;2023-05-18T02:09:24;101136.52;;;7.86;70.42
77153;BME280;66124;51.146;17.072;2023-05-18T02:11:54;101138.50;;;7.85;70.30
77153;BME280;66124;51.146;17.072;2023-05-18T02:14:23;101136.98;;;7.83;70.11
77153;BME280;66124;51.146;17.072;2023-05-18T02:16:52;101140.92;;;7.80;70.12
77153;BME280;66124;51.146;17.072;2023-05-18T02:19:22;101139.88;;;7.76;70.12
77153;BME280;66124;51.146;17.072;2023-05-18T02:21:51;101141.83;;;7.71;70.01
77153;BME280;66124;51.146;17.072;2023-05-18T02:24:21;101140.63;;;7.67;70.16
77153;BME280;66124;51.146;17.072;2023-05-18T02:26:50;101140.44;;;7.64;70.29
77153;BME280;66124;51.146;17.072;2023-05-18T02:29:20;101143.58;;;7.60;70.18
77153;BME280;66124;51.146;17.072;2023-05-18T02:31:49;101148.82;;;7.56;70.40
77153;BME280;66124;51.146;17.072;2023-05-18T02:34:19;101144.38;;;7.51;70.53
77153;BME280;66124;51.146;17.072;2023-05-18T02:36:48;101133.61;;;7.39;70.23
77153;BME280;66124;51.146;17.072;2023-05-18T02:39:17;101147.02;;;7.43;70.42
77153;BME280;66124;51.146;17.072;2023-05-18T02:41:47;101146.14;;;7.40;70.53
77153;BME280;66124;51.146;17.072;2023-05-18T02:44:16;101148.13;;;7.37;70.45
77153;BME280;66124;51.146;17.072;2023-05-18T02:46:46;101150.23;;;7.35;70.60
77153;BME280;66124;51.146;17.072;2023-05-18T02:49:14;101151.09;;;7.31;70.42
77153;BME280;66124;51.146;17.072;2023-05-18T02:56:51;101153.88;;;7.31;70.74
77153;BME280;66124;51.146;17.072;2023-05-18T02:59:20;101154.92;;;7.29;70.59
77153;BME280;66124;51.146;17.072;2023-05-18T03:01:50;101156.58;;;7.30;70.69
77153;BME280;66124;51.146;17.072;2023-05-18T03:04:19;101160.01;;;7.31;70.75
77153;BME280;66124;51.146;17.072;2023-05-18T03:06:48;101166.12;;;7.33;70.69
77153;BME280;66124;51.146;17.072;2023-05-18T03:09:20;101168.29;;;7.35;70.69
77153;BME280;66124;51.146;17.072;2023-05-18T03:11:49;101168.75;;;7.37;70.64
77153;BME280;66124;51.146;17.072;2023-05-18T03:14:18;101172.20;;;7.40;70.68
77153;BME280;66124;51.146;17.072;2023-05-18T03:16:48;101172.19;;;7.42;70.63
77153;BME280;66124;51.146;17.072;2023-05-18T03:19:17;101172.35;;;7.44;70.80
77153;BME280;66124;51.146;17.072;2023-05-18T03:21:47;101170.45;;;7.46;70.63
77153;BME280;66124;51.146;17.072;2023-05-18T03:24:16;101169.27;;;7.47;70.60
77153;BME280;66124;51.146;17.072;2023-05-18T03:26:45;101166.75;;;7.48;70.85
77153;BME280;66124;51.146;17.072;2023-05-18T03:29:15;101170.48;;;7.49;70.74
77153;BME280;66124;51.146;17.072;2023-05-18T03:31:44;101170.23;;;7.50;70.70
77153;BME280;66124;51.146;17.072;2023-05-18T03:34:13;101167.73;;;7.50;70.70
77153;BME280;66124;51.146;17.072;2023-05-18T03:36:43;101166.29;;;7.51;70.64
77153;BME280;66124;51.146;17.072;2023-05-18T03:39:12;101167.94;;;7.52;70.69
77153;BME280;66124;51.146;17.072;2023-05-18T03:41:42;101171.73;;;7.53;70.66
77153;BME280;66124;51.146;17.072;2023-05-18T03:44:11;101176.81;;;7.53;70.41
77153;BME280;66124;51.146;17.072;2023-05-18T03:46:40;101178.11;;;7.54;70.32
77153;BME280;66124;51.146;17.072;2023-05-18T03:49:10;101179.44;;;7.54;70.46
77153;BME280;66124;51.146;17.072;2023-05-18T03:51:39;101186.65;;;7.56;70.49
77153;BME280;66124;51.146;17.072;2023-05-18T03:54:09;101189.83;;;7.58;70.35
77153;BME280;66124;51.146;17.072;2023-05-18T03:56:38;101190.88;;;7.59;70.47
77153;BME280;66124;51.146;17.072;2023-05-18T03:59:08;101191.58;;;7.61;70.47
77153;BME280;66124;51.146;17.072;2023-05-18T04:01:37;101194.99;;;7.64;70.58
77153;BME280;66124;51.146;17.072;2023-05-18T04:04:06;101196.40;;;7.66;70.75
77153;BME280;66124;51.146;17.072;2023-05-18T04:06:36;101201.02;;;7.69;70.53
77153;BME280;66124;51.146;17.072;2023-05-18T04:09:04;101200.70;;;7.73;70.51
77153;BME280;66124;51.146;17.072;2023-05-18T04:16:41;101208.44;;;7.82;70.38
77153;BME280;66124;51.146;17.072;2023-05-18T04:19:11;101215.47;;;7.86;70.26
77153;BME280;66124;51.146;17.072;2023-05-18T04:21:40;101218.03;;;7.88;70.17
77153;BME280;66124;51.146;17.072;2023-05-18T04:24:10;101218.81;;;7.90;69.92
77153;BME280;66124;51.146;17.072;2023-05-18T04:26:39;101221.77;;;7.92;70.00
77153;BME280;66124;51.146;17.072;2023-05-18T04:29:09;101217.66;;;7.93;69.78
77153;BME280;66124;51.146;17.072;2023-05-18T04:31:39;101221.68;;;7.96;69.80
77153;BME280;66124;51.146;17.072;2023-05-18T04:34:09;101224.59;;;7.99;69.78
77153;BME280;66124;51.146;17.072;2023-05-18T04:36:38;101224.71;;;8.00;69.67
77153;BME280;66124;51.146;17.072;2023-05-18T04:39:08;101227.19;;;8.01;69.74
77153;BME280;66124;51.146;17.072;2023-05-18T04:41:37;101231.59;;;8.03;69.63
77153;BME280;66124;51.146;17.072;2023-05-18T04:44:07;101232.00;;;8.04;69.71
77153;BME280;66124;51.146;17.072;2023-05-18T04:46:36;101231.14;;;8.06;69.57
77153;BME280;66124;51.146;17.072;2023-05-18T04:49:06;101232.14;;;8.08;69.65
77153;BME280;66124;51.146;17.072;2023-05-18T04:51:35;101233.11;;;8.11;69.49
77153;BME280;66124;51.146;17.072;2023-05-18T04:54:05;101233.83;;;8.15;69.56
77153;BME280;66124;51.146;17.072;2023-05-18T04:56:35;101235.20;;;8.17;69.51
77153;BME280;66124;51.146;17.072;2023-05-18T04:59:04;101234.65;;;8.21;69.48
77153;BME280;66124;51.146;17.072;2023-05-18T05:01:33;101235.36;;;8.25;69.51
77153;BME280;66124;51.146;17.072;2023-05-18T05:04:03;101234.82;;;8.31;69.31
77153;BME280;66124;51.146;17.072;2023-05-18T05:06:33;101235.07;;;8.36;69.25
77153;BME280;66124;51.146;17.072;2023-05-18T05:09:02;101234.33;;;8.40;69.17
77153;BME280;66124;51.146;17.072;2023-05-18T05:11:31;101236.27;;;8.43;68.97
77153;BME280;66124;51.146;17.072;2023-05-18T05:14:01;101237.70;;;8.45;68.79
77153;BME280;66124;51.146;17.072;2023-05-18T05:16:31;101237.98;;;8.46;68.69
77153;BME280;66124;51.146;17.072;2023-05-18T05:19:00;101239.63;;;8.51;68.81
77153;BME280;66124;51.146;17.072;2023-05-18T05:21:30;101236.42;;;8.57;68.92
77153;BME280;66124;51.146;17.072;2023-05-18T05:23:59;101239.40;;;8.62;68.65
77153;BME280;66124;51.146;17.072;2023-05-18T05:26:27;101239.62;;;8.66;68.46
77153;BME280;66124;51.146;17.072;2023-05-18T05:28:55;101241.09;;;8.69;68.05
77153;BME280;66124;51.146;17.072;2023-05-18T05:36:29;101241.31;;;8.85;67.63
77153;BME280;66124;51.146;17.072;2023-05-18T05:38:58;101247.95;;;8.91;67.48
77153;BME280;66124;51.146;17.072;2023-05-18T05:41:27;101246.64;;;8.97;67.27
77153;BME280;66124;51.146;17.072;2023-05-18T05:43:57;101245.77;;;9.03;67.18
77153;BME280;66124;51.146;17.072;2023-05-18T05:46:26;101234.41;;;9.09;66.85
77153;BME280;66124;51.146;17.072;2023-05-18T05:48:57;101237.19;;;9.13;66.49
77153;BME280;66124;51.146;17.072;2023-05-18T05:51:27;101238.45;;;9.17;66.23
77153;BME280;66124;51.146;17.072;2023-05-18T05:53:56;101244.11;;;9.20;66.11
77153;BME280;66124;51.146;17.072;2023-05-18T05:56:25;101243.14;;;9.27;66.14
77153;BME280;66124;51.146;17.072;2023-05-18T05:58:55;101248.33;;;9.33;65.81
77153;BME280;66124;51.146;17.072;2023-05-18T06:01:24;101250.35;;;9.41;65.56
77153;BME280;66124;51.146;17.072;2023-05-18T06:03:53;101250.05;;;9.48;65.39
77153;BME280;66124;51.146;17.072;2023-05-18T06:06:23;101248.45;;;9.53;64.94
77153;BME280;66124;51.146;17.072;2023-05-18T06:08:52;101253.09;;;9.58;64.87
77153;BME280;66124;51.146;17.072;2023-05-18T06:11:22;101250.54;;;9.62;64.50
77153;BME280;66124;51.146;17.072;2023-05-18T06:13:51;101254.41;;;9.67;64.25
77153;BME280;66124;51.146;17.072;2023-05-18T06:16:20;101251.54;;;9.72;64.27
77153;BME280;66124;51.146;17.072;2023-05-18T06:18:50;101253.74;;;9.76;63.95
77153;BME280;66124;51.146;17.072;2023-05-18T06:21:19;101256.67;;;9.78;63.55
77153;BME280;66124;51.146;17.072;2023-05-18T06:23:49;101257.66;;;9.82;63.45
77153;BME280;66124;51.146;17.072;2023-05-18T06:26:18;101259.88;;;9.91;63.31
77153;BME280;66124;51.146;17.072;2023-05-18T06:28:48;101262.08;;;9.98;63.04
77153;BME280;66124;51.146;17.072;2023-05-18T06:31:17;101259.76;;;10.08;62.74
77153;BME280;66124;51.146;17.072;2023-05-18T06:33:46;101258.96;;;10.14;62.53
77153;BME280;66124;51.146;17.072;2023-05-18T06:36:17;101262.09;;;10.18;62.31
77153;BME280;66124;51.146;17.072;2023-05-18T06:38:46;101266.02;;;10.26;62.36
77153;BME280;66124;51.146;17.072;2023-05-18T06:41:15;101266.39;;;10.36;62.12
77153;BME280;66124;51.146;17.072;2023-05-18T06:43:45;101265.83;;;10.45;61.68
77153;BME280;66124;51.146;17.072;2023-05-18T06:46:20;101267.94;;;10.49;61.17
77153;BME280;66124;51.146;17.072;2023-05-18T06:48:48;101265.27;;;10.52;60.92
77153;BME280;66124;51.146;17.072;2023-05-18T06:56:14;101271.05;;;10.63;60.31
77153;BME280;66124;51.146;17.072;2023-05-18T06:58:43;101269.13;;;10.61;59.98
77153;BME280;66124;51.146;17.072;2023-05-18T07:01:13;101271.85;;;10.63;60.04
77153;BME280;66124;51.146;17.072;2023-05-18T07:03:42;101275.17;;;10.68;60.13
77153;BME280;66124;51.146;17.072;2023-05-18T07:06:12;101274.27;;;10.73;59.78
77153;BME280;66124;51.146;17.072;2023-05-18T07:08:44;101273.65;;;10.81;60.04
77153;BME280;66124;51.146;17.072;2023-05-18T07:11:13;101275.77;;;10.86;59.58
77153;BME280;66124;51.146;17.072;2023-05-18T07:13:43;101275.81;;;10.89;59.79
77153;BME280;66124;51.146;17.072;2023-05-18T07:16:13;101277.20;;;10.94;59.49
77153;BME280;66124;51.146;17.072;2023-05-18T07:18:42;101274.48;;;11.02;59.65
77153;BME280;66124;51.146;17.072;2023-05-18T07:21:12;101275.59;;;11.08;59.21
77153;BME280;66124;51.146;17.072;2023-05-18T07:23:41;101275.68;;;11.12;58.98
77153;BME280;66124;51.146;17.072;2023-05-18T07:26:11;101276.83;;;11.20;58.97
77153;BME280;66124;51.146;17.072;2023-05-18T07:28:42;101278.35;;;11.31;58.92
77153;BME280;66124;51.146;17.072;2023-05-18T07:31:13;101273.12;;;11.42;58.24
77153;BME280;66124;51.146;17.072;2023-05-18T07:33:44;101275.59;;;11.50;58.45
77153;BME280;66124;51.146;17.072;2023-05-18T07:36:13;101273.85;;;11.58;57.97
77153;BME280;66124;51.146;17.072;2023-05-18T07:38:42;101277.67;;;11.65;58.13
77153;BME280;66124;51.146;17.072;2023-05-18T07:41:12;101279.63;;;11.70;57.50
77153;BME280;66124;51.146;17.072;2023-05-18T07:43:41;101273.67;;;11.75;57.48
77153;BME280;66124;51.146;17.072;2023-05-18T07:46:10;101282.16;;;11.81;57.62
77153;BME280;66124;51.146;17.072;2023-05-18T07:48:40;101280.17;;;11.90;57.48
77153;BME280;66124;51.146;17.072;2023-05-18T07:51:10;101282.34;;;12.01;57.28
77153;BME280;66124;51.146;17.072;2023-05-18T07:53:40;101281.90;;;12.15;57.26
77153;BME280;66124;51.146;17.072;2023-05-18T07:56:09;101280.30;;;12.27;56.77
77153;BME280;66124;51.146;17.072;2023-05-18T07:58:38;101282.77;;;12.30;55.91
77153;BME280;66124;51.146;17.072;2023-05-18T08:01:08;101280.46;;;12.33;55.51
77153;BME280;66124;51.146;17.072;2023-05-18T08:03:37;101279.60;;;12.33;54.94
77153;BME280;66124;51.146;17.072;2023-05-18T08:06:05;101274.61;;;12.32;54.65
77153;BME280;66124;51.146;17.072;2023-05-18T08:08:33;101277.52;;;12.34;54.97
77153;BME280;66124;51.146;17.072;2023-05-18T08:16:11;101281.65;;;12.61;53.93
77153;BME280;66124;51.146;17.072;2023-05-18T08:18:40;101275.88;;;12.69;53.79
77153;BME280;66124;51.146;17.072;2023-05-18T08:21:10;101277.66;;;12.76;53.52
77153;BME280;66124;51.146;17.072;2023-05-18T08:23:39;101278.20;;;12.84;53.42
77153;BME280;66124;51.146;17.072;2023-05-18T08:26:09;101274.19;;;12.92;53.18
77153;BME280;66124;51.146;17.072;2023-05-18T08:28:39;101273.78;;;12.98;53.06
77153;BME280;66124;51.146;17.072;2023-05-18T08:31:09;101277.09;;;13.02;52.73
77153;BME280;66124;51.146;17.072;2023-05-18T08:33:38;101274.85;;;13.07;52.44
77153;BME280;66124;51.146;17.072;2023-05-18T08:36:08;101271.67;;;13.17;52.57
77153;BME280;66124;51.146;17.072;2023-05-18T08:38:38;101268.46;;;13.28;52.33
77153;BME280;66124;51.146;17.072;2023-05-18T08:41:14;101268.27;;;13.29;52.12
77153;BME280;66124;51.146;17.072;2023-05-18T08:43:50;101267.87;;;13.29;52.29
77153;BME280;66124;51.146;17.072;2023-05-18T08:46:24;101269.27;;;13.31;52.31
77153;BME280;66124;51.146;17.072;2023-05-18T08:48:55;101267.71;;;13.33;52.35
77153;BME280;66124;51.146;17.072;2023-05-18T08:51:29;101266.48;;;13.36;52.29
77153;BME280;66124;51.146;17.072;2023-05-18T08:54:02;101269.05;;;13.39;52.02
77153;BME280;66124;51.146;17.072;2023-05-18T08:56:32;101270.02;;;13.41;52.03
77153;BME280;66124;51.146;17.072;2023-05-18T08:59:04;101264.12;;;13.50;52.13
77153;BME280;66124;51.146;17.072;2023-05-18T09:01:35;101262.17;;;13.57;51.89
77153;BME280;66124;51.146;17.072;2023-05-18T09:04:05;101264.65;;;13.59;51.53
77153;BME280;66124;51.146;17.072;2023-05-18T09:06:35;101264.11;;;13.55;51.28
77153;BME280;66124;51.146;17.072;2023-05-18T09:09:05;101263.71;;;13.53;51.08
77153;BME280;66124;51.146;17.072;2023-05-18T09:11:35;101256.98;;;13.51;51.02
77153;BME280;66124;51.146;17.072;2023-05-18T09:14:04;101263.04;;;13.56;51.50
77153;BME280;66124;51.146;17.072;2023-05-18T09:16:34;101259.23;;;13.66;51.59
77153;BME280;66124;51.146;17.072;2023-05-18T09:19:03;101261.72;;;13.78;51.32
77153;BME280;66124;51.146;17.072;2023-05-18T09:21:33;101257.42;;;13.88;50.79
77153;BME280;66124;51.146;17.072;2023-05-18T09:24:00;101258.50;;;14.00;50.95
77153;BME280;66124;51.146;17.072;2023-05-18T09:26:28;101261.58;;;14.10;50.47
77153;BME280;66124;51.146;17.072;2023-05-18T09:28:56;101258.59;;;14.18;50.17
77153;BME280;66124;51.146;17.072;2023-05-18T09:36:33;101257.05;;;14.28;49.35
77153;BME280;66124;51.146;17.072;2023-05-18T09:39:08;101257.27;;;14.32;49.40
77153;BME280;66124;51.146;17.072;2023-05-18T09:41:38;101256.15;;;14.40;49.41
77153;BME280;66124;51.146;17.072;2023-05-18T09:44:08;101243.61;;;14.46;49.46
77153;BME280;66124;51.146;17.072;2023-05-18T09:46:39;101256.46;;;14.73;49.32
77153;BME280;66124;51.146;17.072;2023-05-18T09:49:08;101251.86;;;14.83;48.72
77153;BME280;66124;51.146;17.072;2023-05-18T09:51:38;101252.59;;;14.89;48.37
77153;BME280;66124;51.146;17.072;2023-05-18T09:54:08;101254.59;;;14.95;48.33
77153;BME280;66124;51.146;17.072;2023-05-18T09:56:38;101245.98;;;15.04;48.11
77153;BME280;66124;51.146;17.072;2023-05-18T09:59:14;101247.91;;;15.09;47.83
77153;BME280;66124;51.146;17.072;2023-05-18T10:01:58;101243.27;;;15.16;47.47
77153;BME280;66124;51.146;17.072;2023-05-18T10:04:37;101242.38;;;15.18;47.19
77153;BME280;66124;51.146;17.072;2023-05-18T10:07:11;101240.66;;;15.19;47.03
77153;BME280;66124;51.146;17.072;2023-05-18T10:09:42;101233.89;;;15.25;46.41
77153;BME280;66124;51.146;17.072;2023-05-18T10:12:12;101230.98;;;15.23;45.91
77153;BME280;66124;51.146;17.072;2023-05-18T10:14:44;101237.98;;;15.13;45.83
77153;BME280;66124;51.146;17.072;2023-05-18T10:17:15;101238.92;;;14.99;45.86
77153;BME280;66124;51.146;17.072;2023-05-18T10:19:45;101237.06;;;14.95;46.25
77153;BME280;66124;51.146;17.072;2023-05-18T10:22:16;101234.96;;;14.94;46.26
77153;BME280;66124;51.146;17.072;2023-05-18T10:24:49;101231.53;;;14.99;45.98
77153;BME280;66124;51.146;17.072;2023-05-18T10:27:24;101232.80;;;15.02;45.77
77153;BME280;66124;51.146;17.072;2023-05-18T10:29:55;101235.20;;;15.04;46.03
77153;BME280;66124;51.146;17.072;2023-05-18T10:32:26;101236.30;;;15.08;46.02
77153;BME280;66124;51.146;17.072;2023-05-18T10:34:57;101236.49;;;15.12;45.65
77153;BME280;66124;51.146;17.072;2023-05-18T10:37:28;101232.17;;;15.20;45.77
77153;BME280;66124;51.146;17.072;2023-05-18T10:40:00;101233.16;;;15.32;45.75
77153;BME280;66124;51.146;17.072;2023-05-18T10:42:30;101228.20;;;15.46;45.48
77153;BME280;66124;51.146;17.072;2023-05-18T10:45:01;101232.24;;;15.60;45.35
77153;BME280;66124;51.146;17.072;2023-05-18T10:47:29;101229.06;;;15.78;44.78
77153;BME280;66124;51.146;17.072;2023-05-18T10:56:17;101220.55;;;16.11;44.11
77153;BME280;66124;51.146;17.072;2023-05-18T10:58:47;101220.67;;;16.12;43.88
77153;BME280;66124;51.146;17.072;2023-05-18T11:01:17;101219.71;;;16.14;43.89
77153;BME280;66124;51.146;17.072;2023-05-18T11:03:49;101220.34;;;16.20;43.94
77153;BME280;66124;51.146;17.072;2023-05-18T11:06:23;101219.74;;;16.23;43.69
77153;BME280;66124;51.146;17.072;2023-05-18T11:08:53;101221.15;;;16.25;43.26
77153;BME280;66124;51.146;17.072;2023-05-18T11:11:24;101219.80;;;16.24;42.73
77153;BME280;66124;51.146;17.072;2023-05-18T11:13:54;101211.54;;;16.29;42.30
77153;BME280;66124;51.146;17.072;2023-05-18T11:16:33;101218.03;;;16.32;42.32
77153;BME280;66124;51.146;17.072;2023-05-18T11:19:07;101219.77;;;16.38;41.94
77153;BME280;66124;51.146;17.072;2023-05-18T11:21:53;101217.48;;;16.53;41.96
77153;BME280;66124;51.146;17.072;2023-05-18T11:24:25;101217.73;;;16.71;41.46
77153;BME280;66124;51.146;17.072;2023-05-18T11:26:56;101218.52;;;16.88;41.69
77153;BME280;66124;51.146;17.072;2023-05-18T11:29:33;101203.48;;;17.00;41.33
77153;BME280;66124;51.146;17.072;2023-05-18T11:32:04;101211.97;;;17.23;41.02
77153;BME280;66124;51.146;17.072;2023-05-18T11:34:52;101209.77;;;17.45;40.74
77153;BME280;66124;51.146;17.072;2023-05-18T11:37:47;101214.22;;;17.73;40.68
77153;BME280;66124;51.146;17.072;2023-05-18T11:40:49;101209.83;;;17.96;40.36
77153;BME280;66124;51.146;17.072;2023-05-18T11:43:22;101203.44;;;18.09;40.09
77153;BME280;66124;51.146;17.072;2023-05-18T11:45:56;101209.44;;;18.29;39.98
77153;BME280;66124;51.146;17.072;2023-05-18T11:48:28;101211.36;;;18.39;39.42
77153;BME280;66124;51.146;17.072;2023-05-18T11:50:58;101212.14;;;18.51;38.96
77153;BME280;66124;51.146;17.072;2023-05-18T11:53:30;101210.98;;;18.77;38.87
77153;BME280;66124;51.146;17.072;2023-05-18T11:55:59;101210.02;;;19.16;38.54
77153;BME280;66124;51.146;17.072;2023-05-18T11:58:30;101203.36;;;19.49;37.62
77153;BME280;66124;51.146;17.072;2023-05-18T12:01:00;101206.07;;;19.66;36.97
77153;BME280;66124;51.146;17.072;2023-05-18T12:03:31;101207.35;;;19.80;36.95
77153;BME280;66124;51.146;17.072;2023-05-18T12:06:01;101203.17;;;20.02;36.81
77153;BME280;66124;51.146;17.072;2023-05-18T12:08:34;101207.41;;;20.12;36.39
77153;BME280;66124;51.146;17.072;2023-05-18T12:15:24;101201.19;;;20.75;35.92
77153;BME280;66124;51.146;17.072;2023-05-18T12:17:57;101194.54;;;21.03;35.04
77153;BME280;66124;51.146;17.072;2023-05-18T12:20:26;101196.84;;;21.17;34.08
77153;BME280;66124;51.146;17.072;2023-05-18T12:22:56;101192.58;;;21.20;33.82
77153;BME280;66124;51.146;17.072;2023-05-18T12:25:27;101188.73;;;21.34;33.55
77153;BME280;66124;51.146;17.072;2023-05-18T12:27:57;101187.09;;;21.48;33.10
77153;BME280;66124;51.146;17.072;2023-05-18T12:30:28;101186.54;;;21.58;32.16
77153;BME280;66124;51.146;17.072;2023-05-18T12:32:57;101185.74;;;21.68;32.47
77153;BME280;66124;51.146;17.072;2023-05-18T12:35:28;101187.37;;;21.91;32.51
77153;BME280;66124;51.146;17.072;2023-05-18T12:37:58;101182.11;;;22.18;32.20
77153;BME280;66124;51.146;17.072;2023-05-18T12:40:33;101182.95;;;22.51;32.10
77153;BME280;66124;51.146;17.072;2023-05-18T12:43:02;101175.74;;;23.14;31.56
77153;BME280;66124;51.146;17.072;2023-05-18T12:45:33;101172.29;;;23.72;30.96
77153;BME280;66124;51.146;17.072;2023-05-18T12:48:06;101174.29;;;23.93;29.71
77153;BME280;66124;51.146;17.072;2023-05-18T12:50:36;101176.62;;;24.04;28.93
77153;BME280;66124;51.146;17.072;2023-05-18T12:53:14;101170.65;;;24.27;28.90
77153;BME280;66124;51.146;17.072;2023-05-18T12:55:44;101168.79;;;24.50;28.67
77153;BME280;66124;51.146;17.072;2023-05-18T12:58:14;101169.93;;;24.46;28.47
77153;BME280;66124;51.146;17.072;2023-05-18T13:00:45;101172.07;;;24.31;28.31
77153;BME280;66124;51.146;17.072;2023-05-18T13:03:16;101169.98;;;24.21;28.51
77153;BME280;66124;51.146;17.072;2023-05-18T13:05:45;101168.42;;;24.48;28.61
77153;BME280;66124;51.146;17.072;2023-05-18T13:08:18;101165.44;;;24.79;28.62
77153;BME280;66124;51.146;17.072;2023-05-18T13:10:48;101163.39;;;25.04;28.15
77153;BME280;66124;51.146;17.072;2023-05-18T13:13:18;101160.52;;;25.17;27.68
77153;BME280;66124;51.146;17.072;2023-05-18T13:15:49;101161.54;;;25.30;27.59
77153;BME280;66124;51.146;17.072;2023-05-18T13:18:19;101151.80;;;25.51;27.51
77153;BME280;66124;51.146;17.072;2023-05-18T13:20:50;101150.75;;;25.76;27.46
77153;BME280;66124;51.146;17.072;2023-05-18T13:23:21;101152.40;;;25.93;27.27
77153;BME280;66124;51.146;17.072;2023-05-18T13:25:51;101153.20;;;25.99;26.90
77153;BME280;66124;51.146;17.072;2023-05-18T13:28:20;101147.27;;;25.99;26.62
77153;BME280;66124;51.146;17.072;2023-05-18T13:31:06;101151.37;;;26.06;26.72
77153;BME280;66124;51.146;17.072;2023-05-18T13:33:35;101157.61;;;26.06;26.11
77153;BME280;66124;51.146;17.072;2023-05-18T13:36:06;101155.48;;;26.10;26.21
77153;BME280;66124;51.146;17.072;2023-05-18T13:38:35;101152.45;;;26.11;25.79
77153;BME280;66124;51.146;17.072;2023-05-18T13:41:05;101146.91;;;25.97;25.93
77153;BME280;66124;51.146;17.072;2023-05-18T13:43:35;101147.27;;;26.01;26.12
77153;BME280;66124;51.146;17.072;2023-05-18T13:46:04;101141.75;;;26.32;25.69
77153;BME280;66124;51.146;17.072;2023-05-18T13:48:34;101139.70;;;26.34;25.37
77153;BME280;66124;51.146;17.072;2023-05-18T13:51:04;101140.86;;;26.15;25.78
77153;BME280;66124;51.146;17.072;2023-05-18T13:53:33;101137.83;;;26.19;25.88